Airfield :
LOGIN :

Register | Disclaimer

   EN    FR    IT 

 










Legend :    VFR   Marginal VFR   IFR   Intensive IFR   Very Intensive IFR
Visi :
Ceiling :
>= 8 km
>= 3000ft
5 to 8 km
1000 to 3000 ft
1500m to 5 km
500 to 1000 ft
800 to 1500m
200 to 500 ft
< 800m
< 200 ft
Symbols :   Thunderstorms  Fog  Heavy snow  Heavy precipitations  Wind > 20 kt
SIGMETs :     Misc.  Thunderstorms  Icing  Turbulence  Mountain Waves  Volcanic Ashes







- Airport Elevation : 408 ft
- IATA code : FKB


EDSB - Karlsruhe Baden Baden

CURRENT METAR :
  • 231120Z VRB05KT 9999 FEW040 18/07 Q1026

EXPIRED METARs :
  • 231050Z 02007KT 330V070 9999 BKN041 18/07 Q1026
  • 231020Z 01006KT 310V070 9999 BKN045 18/07 Q1026
  • 230950Z 33006KT 280V020 9999 FEW037 BKN044 17/08 Q1026
  • 230920Z 03007KT 330V080 9999 SCT031 17/07 Q1026
  • 230850Z 01006KT 310V050 CAVOK 16/08 Q1026

TAF TAF EDSB
Valid from the 23 at 12:00 until the 24 at 12:00 UTC


231100Z 2312/2412 01006KT 9999 SCT040
TEMPO 2321/2408 VRB03KT
No reported NOTAMs for that airfield.



MET'MAP, your aeronautical weather chart ! - Copyright ORBIFLY December 2007 - Disclaimer

ORBIFLY MET'MAP TEAM :

Programming & Development : Alexandra Zaïnal
Concept & Development : Baudouin d'Aumeries
Co-Development & Prog : Marc-Olivier Méhu
Technical & hardware support : Manuel Goepfert

Contact : metmap@orbifly.com




SOURCES & CREDITS :

   NOAA